createdAt,value
2022-08-12T00:00:44.066Z,44.50
2022-08-12T00:02:04.133Z,44.50
2022-08-12T00:02:45.032Z,44.50
2022-08-12T00:03:35.543Z,44.70
2022-08-12T00:04:26.357Z,44.60
2022-08-12T00:05:17.308Z,44.60
2022-08-12T00:06:09.556Z,44.60
2022-08-12T00:07:00.252Z,44.70
2022-08-12T00:07:52.719Z,44.70
2022-08-12T00:08:43.874Z,44.80
2022-08-12T00:09:34.262Z,44.80
2022-08-12T00:10:25.988Z,44.80
2022-08-12T00:11:16.973Z,44.90
2022-08-12T00:12:08.432Z,44.90
2022-08-12T00:12:58.920Z,45.10
2022-08-12T00:13:49.678Z,44.90
2022-08-12T00:14:41.086Z,45.10
2022-08-12T00:15:36.307Z,43.80
2022-08-12T00:16:27.017Z,47.40
2022-08-12T00:17:18.219Z,44.70
2022-08-12T01:17:44.575Z,44.40
2022-08-12T01:19:24.798Z,45.60
2022-08-12T01:22:16.354Z,45.70
2022-08-12T01:23:23.303Z,45.20
2022-08-12T01:24:30.867Z,45.60
2022-08-12T01:25:18.432Z,46.00
2022-08-12T01:25:55.752Z,45.80
2022-08-12T01:26:32.183Z,45.50
2022-08-12T01:27:07.421Z,45.70
2022-08-12T01:27:41.071Z,45.60
2022-08-12T01:28:16.637Z,46.30
2022-08-12T01:28:57.081Z,46.20
2022-08-12T01:29:34.934Z,46.10
2022-08-12T01:30:10.840Z,46.20
2022-08-12T01:30:44.817Z,46.20
2022-08-12T01:31:18.938Z,46.30
2022-08-12T01:31:54.798Z,45.80
2022-08-12T01:32:28.935Z,46.20
2022-08-12T01:33:06.024Z,46.30
2022-08-12T01:33:55.456Z,46.20
2022-08-12T01:34:38.230Z,46.30
2022-08-12T01:35:17.552Z,46.30
2022-08-12T01:35:57.939Z,46.30
2022-08-12T01:36:46.464Z,46.30
2022-08-12T01:37:22.212Z,46.40
2022-08-12T01:38:02.602Z,46.40
2022-08-12T01:38:36.961Z,46.30
2022-08-12T01:39:09.569Z,46.40
2022-08-12T01:40:34.146Z,46.40
2022-08-12T01:40:48.073Z,46.40
2022-08-12T01:41:23.665Z,46.50
2022-08-12T01:42:02.338Z,46.50
2022-08-12T01:42:51.951Z,46.40
2022-08-12T01:43:26.600Z,46.40
2022-08-12T01:44:01.115Z,46.50
2022-08-12T01:44:34.614Z,46.40
2022-08-12T01:45:07.611Z,46.40
2022-08-12T01:45:57.570Z,46.50
2022-08-12T01:46:41.898Z,45.30
2022-08-12T01:47:47.116Z,46.40
2022-08-12T01:48:57.797Z,46.40
2022-08-12T01:50:00.625Z,46.50
2022-08-12T01:50:33.263Z,46.50
2022-08-12T01:52:20.518Z,46.50
2022-08-12T01:52:44.732Z,46.40
2022-08-12T01:53:20.635Z,46.50
2022-08-12T01:54:09.618Z,46.60
2022-08-12T01:54:46.750Z,46.60
2022-08-12T01:55:28.581Z,46.60
2022-08-12T01:56:00.897Z,46.70
2022-08-12T01:56:51.495Z,46.70
2022-08-12T01:57:58.463Z,46.70
2022-08-12T01:58:57.544Z,46.50
2022-08-12T01:59:58.431Z,46.80
2022-08-12T03:41:35.426Z,47.30
2022-08-12T03:44:53.407Z,50.80
2022-08-12T03:45:52.964Z,48.10
2022-08-12T03:46:51.373Z,46.60
2022-08-12T03:47:57.597Z,49.60
2022-08-12T03:48:48.095Z,48.70
2022-08-12T03:49:38.619Z,48.80
2022-08-12T03:50:29.679Z,48.80
2022-08-12T03:51:21.231Z,49.40
2022-08-12T03:52:13.019Z,48.90
2022-08-12T03:53:03.564Z,49.00
2022-08-12T03:53:54.190Z,49.20
2022-08-12T03:54:44.911Z,49.00
2022-08-12T03:55:35.291Z,49.10
2022-08-12T03:56:25.929Z,49.10
2022-08-12T03:57:17.680Z,49.10
2022-08-12T03:58:08.580Z,49.10
2022-08-12T03:58:59.724Z,48.70
2022-08-12T03:59:50.321Z,49.00
2022-08-12T04:00:24.138Z,49.20
2022-08-12T04:00:58.616Z,49.60
2022-08-12T04:01:31.268Z,49.10
2022-08-12T04:02:16.403Z,49.10
2022-08-12T04:02:55.530Z,49.10
2022-08-12T04:03:47.035Z,49.20
2022-08-12T04:04:23.378Z,49.00
2022-08-12T04:04:56.703Z,48.90
2022-08-12T04:05:54.317Z,49.00
2022-08-12T04:06:34.775Z,49.00
2022-08-12T04:07:09.505Z,49.10
2022-08-12T04:07:57.905Z,49.10
2022-08-12T04:08:31.374Z,49.20
2022-08-12T04:09:16.542Z,49.30
2022-08-12T04:09:48.718Z,49.20
2022-08-12T04:10:21.058Z,49.30
2022-08-12T04:11:14.524Z,49.30
2022-08-12T04:12:04.695Z,49.20
2022-08-12T04:12:54.959Z,49.30
2022-08-12T04:13:29.972Z,49.20
2022-08-12T04:14:14.481Z,49.10
2022-08-12T04:14:46.838Z,49.10
2022-08-12T04:15:20.230Z,49.20
2022-08-12T04:15:52.611Z,49.20
2022-08-12T04:16:24.504Z,49.30
2022-08-12T04:17:01.931Z,49.20
2022-08-12T04:17:34.913Z,49.30
2022-08-12T04:18:08.009Z,49.30
2022-08-12T04:18:40.593Z,49.30
2022-08-12T04:19:13.852Z,49.30
2022-08-12T04:19:48.263Z,49.40
2022-08-12T04:20:22.683Z,49.20
2022-08-12T04:20:55.395Z,49.40
2022-08-12T04:21:27.939Z,49.20
2022-08-12T04:22:03.306Z,49.30
2022-08-12T04:22:36.285Z,49.30
2022-08-12T04:23:16.815Z,49.30
2022-08-12T04:23:49.392Z,49.30
2022-08-12T04:24:25.403Z,49.40
2022-08-12T04:25:01.196Z,49.40
2022-08-12T04:25:36.236Z,49.40
2022-08-12T04:26:08.774Z,49.50
2022-08-12T04:26:40.725Z,49.40
2022-08-12T04:27:12.578Z,49.50
2022-08-12T04:27:45.700Z,49.50
2022-08-12T04:28:27.714Z,49.50
2022-08-12T04:28:59.694Z,49.50
2022-08-12T04:30:31.275Z,49.50
2022-08-12T04:30:32.216Z,49.50
2022-08-12T04:31:05.476Z,49.50
2022-08-12T04:31:40.662Z,49.30
2022-08-12T04:32:13.990Z,49.40
2022-08-12T04:32:48.377Z,49.40
2022-08-12T04:33:20.516Z,49.40
2022-08-12T04:33:52.584Z,49.60
2022-08-12T04:34:25.841Z,49.60
2022-08-12T04:34:58.919Z,49.50
2022-08-12T04:35:31.630Z,49.50
2022-08-12T04:36:03.703Z,49.60
2022-08-12T04:36:38.603Z,49.60
2022-08-12T04:37:12.099Z,49.60
2022-08-12T04:38:00.368Z,49.50
2022-08-12T04:38:34.450Z,49.50
2022-08-12T04:39:08.701Z,49.60
2022-08-12T04:39:41.189Z,49.50
2022-08-12T04:40:14.080Z,49.50
2022-08-12T04:40:47.122Z,49.50
2022-08-12T04:41:20.849Z,49.50
2022-08-12T04:41:58.399Z,49.60
2022-08-12T04:42:30.915Z,49.70
2022-08-12T04:43:03.649Z,49.70
2022-08-12T04:43:54.605Z,49.60
2022-08-12T04:44:28.040Z,49.70
2022-08-12T04:45:00.188Z,49.70
2022-08-12T04:45:34.748Z,49.80
2022-08-12T04:46:07.466Z,49.60
2022-08-12T04:46:39.509Z,49.70
2022-08-12T04:47:13.126Z,49.70
2022-08-12T04:47:45.601Z,49.60
2022-08-12T04:48:17.408Z,49.80
2022-08-12T04:48:50.420Z,50.00
2022-08-12T04:49:24.163Z,49.80
2022-08-12T04:49:56.137Z,49.80
2022-08-12T04:50:36.205Z,49.80
2022-08-12T04:51:10.188Z,49.90
2022-08-12T04:51:42.579Z,50.00
2022-08-12T04:52:34.745Z,50.00
2022-08-12T04:53:09.095Z,50.50
2022-08-12T04:53:42.283Z,50.60
2022-08-12T04:54:14.970Z,52.00
2022-08-12T04:54:49.270Z,52.60
2022-08-12T05:00:53.979Z,49.10
2022-08-12T05:01:32.954Z,49.50
2022-08-12T05:02:04.995Z,49.80
2022-08-12T05:02:41.585Z,49.90
2022-08-12T05:03:14.139Z,50.20
2022-08-12T05:03:47.427Z,50.10
2022-08-12T05:04:22.060Z,50.40
2022-08-12T05:05:01.067Z,50.90
2022-08-12T05:05:36.252Z,50.40
2022-08-12T05:06:08.815Z,50.30
2022-08-12T05:06:52.821Z,50.40
2022-08-12T05:07:24.652Z,50.40
2022-08-12T05:07:56.484Z,50.50
2022-08-12T05:08:29.222Z,50.50
2022-08-12T05:09:01.341Z,50.50
2022-08-12T05:10:01.709Z,50.40
2022-08-12T05:10:33.952Z,50.40
2022-08-12T05:11:07.963Z,50.40
2022-08-12T05:11:39.817Z,50.40
2022-08-12T05:12:34.338Z,50.50
2022-08-12T05:13:11.378Z,50.60
2022-08-12T05:13:46.030Z,50.60
2022-08-12T05:14:17.906Z,50.70
2022-08-12T05:14:50.458Z,50.80
2022-08-12T05:15:29.407Z,50.80
2022-08-12T05:16:04.026Z,50.70
2022-08-12T05:16:37.213Z,50.90
2022-08-12T05:17:09.553Z,50.90
2022-08-12T05:17:42.706Z,51.00
2022-08-12T05:18:19.504Z,51.00
2022-08-12T05:18:52.717Z,50.90
2022-08-12T05:19:24.503Z,51.00
2022-08-12T05:19:57.297Z,51.10
2022-08-12T05:20:30.738Z,51.20
2022-08-12T05:21:02.666Z,51.00
2022-08-12T05:21:34.526Z,51.10
2022-08-12T05:22:07.141Z,51.10
2022-08-12T05:22:39.181Z,51.10
2022-08-12T05:23:17.414Z,51.10
2022-08-12T05:23:49.256Z,51.10
2022-08-12T05:24:21.103Z,51.20
2022-08-12T05:24:53.219Z,51.40
2022-08-12T05:25:25.115Z,51.30
2022-08-12T05:25:57.124Z,51.30
2022-08-12T05:26:29.624Z,51.40
2022-08-12T05:27:01.421Z,51.50
2022-08-12T05:27:34.494Z,51.50
2022-08-12T05:28:06.680Z,51.50
2022-08-12T05:28:38.630Z,51.60
2022-08-12T05:30:06.893Z,51.60
2022-08-12T05:30:09.040Z,51.60
2022-08-12T05:30:42.664Z,51.80
2022-08-12T05:31:16.364Z,51.80
2022-08-12T05:32:08.626Z,51.70
2022-08-12T05:32:40.617Z,51.80
2022-08-12T05:33:15.473Z,51.80
2022-08-12T05:33:47.618Z,51.80
2022-08-12T05:34:21.045Z,51.90
2022-08-12T05:34:55.664Z,51.80
2022-08-12T05:35:28.183Z,51.90
2022-08-12T05:35:59.992Z,51.90
2022-08-12T05:36:31.812Z,52.10
2022-08-12T05:37:03.869Z,51.90
2022-08-12T05:37:35.852Z,52.00
2022-08-12T05:38:27.283Z,51.90
2022-08-12T05:38:59.515Z,52.00
2022-08-12T05:39:31.332Z,52.00
2022-08-12T05:40:10.672Z,52.10
2022-08-12T05:40:43.398Z,52.10
2022-08-12T05:41:20.954Z,52.20
2022-08-12T05:41:53.527Z,52.10
2022-08-12T05:42:31.031Z,52.20
2022-08-12T05:43:06.593Z,52.30
2022-08-12T05:43:38.512Z,52.30
2022-08-12T05:44:16.152Z,52.30
2022-08-12T05:44:47.992Z,52.30
2022-08-12T05:45:19.847Z,52.40
2022-08-12T05:45:51.865Z,52.40
2022-08-12T05:46:25.055Z,52.40
2022-08-12T05:46:56.860Z,52.50
2022-08-12T05:47:44.883Z,52.60
2022-08-12T05:48:21.731Z,52.50
2022-08-12T05:48:54.895Z,52.50
2022-08-12T05:49:26.757Z,52.50
2022-08-12T05:49:59.545Z,52.60
2022-08-12T05:50:31.387Z,52.60
2022-08-12T05:51:03.679Z,53.30
2022-08-12T05:51:40.281Z,52.50
2022-08-12T05:52:13.263Z,52.50
2022-08-12T05:52:45.755Z,52.70
2022-08-12T05:53:20.333Z,52.70
2022-08-12T05:53:53.937Z,52.70
2022-08-12T05:54:41.155Z,52.70
2022-08-12T05:55:18.299Z,52.90
2022-08-12T05:55:53.165Z,52.80
2022-08-12T05:56:26.624Z,52.90
2022-08-12T05:56:58.435Z,52.80
2022-08-12T05:57:30.230Z,53.00
2022-08-12T05:58:03.069Z,52.90
2022-08-12T05:58:34.894Z,53.40
2022-08-12T05:59:07.668Z,53.10
2022-08-12T05:59:39.943Z,52.90
2022-08-12T06:00:12.272Z,52.90
2022-08-12T06:00:44.088Z,53.00
2022-08-12T06:02:09.790Z,53.10
2022-08-12T06:02:13.434Z,53.20
2022-08-12T06:02:46.413Z,53.00
2022-08-12T06:03:19.676Z,53.20
2022-08-12T06:03:52.841Z,53.20
2022-08-12T06:04:24.724Z,53.10
2022-08-12T06:05:00.247Z,53.00
2022-08-12T06:05:51.978Z,53.10
2022-08-12T06:06:27.830Z,53.10
2022-08-12T06:07:01.669Z,53.20
2022-08-12T06:08:01.366Z,53.20
2022-08-12T06:08:34.680Z,53.30
2022-08-12T06:09:10.078Z,53.30
2022-08-12T06:09:41.924Z,53.30
2022-08-12T06:10:13.794Z,53.30
2022-08-12T06:10:46.065Z,53.30
2022-08-12T06:11:19.329Z,53.40
2022-08-12T06:12:04.824Z,53.40
2022-08-12T06:12:38.157Z,53.40
2022-08-12T06:13:11.427Z,53.30
2022-08-12T06:13:53.878Z,53.40
2022-08-12T06:14:26.427Z,53.40
2022-08-12T06:15:00.113Z,53.40
2022-08-12T06:15:35.729Z,53.50
2022-08-12T06:16:09.724Z,53.40
2022-08-12T06:16:41.572Z,53.50
2022-08-12T06:17:13.453Z,53.50
2022-08-12T06:17:46.238Z,53.30
2022-08-12T06:18:19.179Z,53.40
2022-08-12T06:18:51.659Z,53.60
2022-08-12T06:19:25.126Z,53.50
2022-08-12T06:20:27.289Z,53.50
2022-08-12T06:21:02.410Z,53.60
2022-08-12T06:21:36.481Z,53.60
2022-08-12T06:22:12.012Z,53.40
2022-08-12T06:22:45.059Z,53.30
2022-08-12T06:23:16.851Z,53.30
2022-08-12T06:23:48.653Z,53.40
2022-08-12T06:24:24.271Z,53.30
2022-08-12T06:24:56.081Z,53.40
2022-08-12T06:25:29.138Z,53.40
2022-08-12T06:26:01.494Z,53.40
2022-08-12T06:26:34.495Z,53.40
2022-08-12T06:27:06.358Z,53.40
2022-08-12T06:28:06.398Z,53.30
2022-08-12T06:28:40.690Z,53.30
2022-08-12T06:30:06.916Z,53.00
2022-08-12T06:30:16.308Z,53.20
2022-08-12T06:31:24.311Z,53.20
2022-08-12T06:31:50.482Z,53.00
2022-08-12T06:32:28.112Z,53.20
2022-08-12T06:33:21.011Z,53.10
2022-08-12T06:34:00.258Z,53.10
2022-08-12T06:35:24.027Z,53.00
2022-08-12T06:35:48.710Z,53.10
2022-08-12T06:36:23.217Z,53.20
2022-08-12T06:36:55.666Z,53.00
2022-08-12T06:37:27.508Z,53.00
2022-08-12T06:37:59.292Z,52.90
2022-08-12T06:38:32.253Z,52.80
2022-08-12T06:39:04.145Z,52.70
2022-08-12T06:39:36.013Z,52.80
2022-08-12T06:40:10.379Z,53.00
2022-08-12T06:41:02.615Z,52.90
2022-08-12T06:42:05.045Z,53.00
2022-08-12T06:42:49.041Z,52.80
2022-08-12T06:43:21.267Z,53.20
2022-08-12T06:44:06.166Z,53.70
2022-08-12T06:44:39.548Z,53.80
2022-08-12T06:45:12.428Z,53.60
2022-08-12T06:45:46.759Z,53.60
2022-08-12T06:46:25.540Z,53.60
2022-08-12T06:46:58.396Z,53.50
2022-08-12T06:47:32.582Z,53.30
2022-08-12T06:48:11.166Z,53.40
2022-08-12T06:48:43.431Z,53.40
2022-08-12T06:49:15.432Z,53.20
2022-08-12T06:49:51.372Z,53.40
2022-08-12T06:50:23.190Z,53.90
2022-08-12T06:50:59.226Z,53.70
2022-08-12T06:51:32.476Z,53.90
2022-08-12T06:52:05.003Z,53.80
2022-08-12T06:52:36.817Z,54.10
2022-08-12T06:53:09.411Z,55.70
2022-08-12T06:53:43.091Z,55.90
2022-08-12T06:54:14.993Z,55.30
2022-08-12T06:55:02.775Z,55.10
2022-08-12T06:55:36.251Z,55.30
2022-08-12T06:56:12.436Z,55.00
2022-08-12T06:57:03.625Z,55.00
2022-08-12T06:58:04.436Z,54.90
2022-08-12T06:58:39.651Z,56.80
2022-08-12T06:59:14.380Z,56.40
2022-08-12T06:59:46.280Z,56.50
2022-08-12T07:00:32.486Z,56.10
2022-08-12T07:01:05.744Z,57.00
2022-08-12T07:01:38.473Z,57.10
2022-08-12T07:02:10.339Z,57.00
2022-08-12T07:02:42.322Z,57.00
2022-08-12T07:03:25.647Z,58.00
2022-08-12T07:04:09.364Z,57.10
2022-08-12T07:04:49.874Z,57.70
2022-08-12T07:05:26.049Z,57.40
2022-08-12T07:06:00.362Z,58.30
2022-08-12T07:06:32.306Z,57.90
2022-08-12T07:07:09.111Z,58.20
2022-08-12T07:07:41.763Z,57.90
2022-08-12T07:08:16.843Z,57.60
2022-08-12T07:08:49.742Z,58.90
2022-08-12T07:10:03.676Z,58.50
2022-08-12T07:10:13.402Z,58.70
2022-08-12T07:10:57.305Z,58.90
2022-08-12T07:11:29.406Z,58.40
2022-08-12T07:12:01.218Z,59.60
2022-08-12T07:12:32.981Z,59.30
2022-08-12T07:13:04.761Z,60.10
2022-08-12T07:14:11.283Z,60.60
2022-08-12T07:14:40.526Z,60.00
2022-08-12T07:15:13.313Z,59.80
2022-08-12T07:15:45.313Z,59.70
2022-08-12T07:16:19.827Z,60.00
2022-08-12T07:16:56.715Z,59.40
2022-08-12T07:17:35.841Z,59.60
2022-08-12T07:18:13.060Z,59.70
2022-08-12T07:18:53.835Z,59.70
2022-08-12T07:19:25.700Z,59.50
2022-08-12T07:20:35.827Z,59.20
2022-08-12T07:21:06.363Z,59.20
2022-08-12T07:22:02.111Z,59.20
2022-08-12T07:22:30.015Z,59.30
2022-08-12T07:23:05.324Z,58.80
2022-08-12T07:23:39.053Z,58.90
2022-08-12T07:24:10.967Z,58.90
2022-08-12T07:24:42.979Z,59.10
2022-08-12T07:25:37.731Z,58.90
2022-08-12T07:26:17.127Z,58.80
2022-08-12T07:26:48.936Z,58.70
2022-08-12T07:27:20.726Z,58.50
2022-08-12T07:27:55.714Z,58.30
2022-08-12T07:28:29.432Z,58.40
2022-08-12T07:29:01.377Z,58.50
2022-08-12T07:29:59.458Z,58.30
2022-08-12T07:30:26.313Z,58.50
2022-08-12T07:30:58.445Z,59.60
2022-08-12T07:31:30.971Z,59.10
2022-08-12T07:32:05.396Z,59.90
2022-08-12T07:32:37.665Z,60.00
2022-08-12T07:33:11.432Z,60.30
2022-08-12T07:33:43.258Z,60.50
2022-08-12T07:34:15.297Z,60.20
2022-08-12T07:34:47.252Z,60.50
2022-08-12T07:35:20.238Z,60.80
2022-08-12T07:35:54.402Z,60.60
2022-08-12T07:36:28.068Z,61.40
2022-08-12T07:37:01.188Z,61.40
2022-08-12T07:37:41.615Z,61.20
2022-08-12T07:38:43.874Z,61.50
2022-08-12T07:39:16.686Z,61.10
2022-08-12T07:39:50.579Z,61.30
2022-08-12T07:40:27.006Z,61.70
2022-08-12T07:40:59.017Z,61.30
2022-08-12T07:41:31.919Z,61.20
2022-08-12T07:42:04.497Z,60.60
2022-08-12T07:42:36.676Z,61.70
2022-08-12T07:43:09.235Z,61.70
2022-08-12T07:44:04.712Z,61.30
2022-08-12T07:44:36.952Z,62.20
2022-08-12T07:45:09.415Z,62.20
2022-08-12T07:45:41.237Z,62.00
2022-08-12T07:46:15.915Z,62.00
2022-08-12T07:46:48.033Z,61.90
2022-08-12T07:47:19.941Z,61.80
2022-08-12T07:47:51.728Z,61.70
2022-08-12T07:48:24.821Z,61.50
2022-08-12T07:48:59.582Z,60.90
2022-08-12T07:49:31.363Z,60.60
2022-08-12T07:50:09.051Z,61.40
2022-08-12T07:50:40.959Z,62.50
2022-08-12T07:51:25.414Z,62.60
2022-08-12T07:51:57.648Z,61.90
2022-08-12T07:52:29.456Z,62.30
2022-08-12T07:53:01.429Z,62.30
2022-08-12T07:53:33.627Z,62.60
2022-08-12T07:54:19.658Z,62.60
2022-08-12T07:54:51.435Z,61.60
2022-08-12T07:55:23.227Z,61.50
2022-08-12T07:55:55.055Z,62.30
2022-08-12T07:56:28.178Z,62.60
2022-08-12T07:56:59.974Z,62.30
2022-08-12T07:57:34.785Z,62.20
2022-08-12T07:58:06.922Z,62.00
2022-08-12T07:58:44.013Z,62.60
2022-08-12T07:59:19.385Z,62.30
2022-08-12T07:59:52.819Z,62.30
2022-08-12T08:00:30.890Z,62.00
2022-08-12T08:01:02.841Z,61.90
2022-08-12T08:01:37.772Z,63.30
2022-08-12T08:02:09.939Z,63.00
2022-08-12T08:02:42.007Z,62.50
2022-08-12T08:03:14.707Z,62.60
2022-08-12T08:04:09.299Z,63.10
2022-08-12T08:04:56.068Z,62.80
2022-08-12T08:05:37.484Z,63.30
2022-08-12T08:06:18.862Z,63.50
2022-08-12T08:06:52.535Z,62.90
2022-08-12T08:07:29.695Z,63.10
2022-08-12T08:08:03.731Z,62.60
2022-08-12T08:08:35.521Z,62.40
2022-08-12T08:09:08.120Z,62.00
2022-08-12T08:09:39.929Z,62.30
2022-08-12T08:10:13.713Z,62.00
2022-08-12T08:10:46.216Z,61.60
2022-08-12T08:11:36.506Z,61.80
2022-08-12T08:12:27.192Z,62.20
2022-08-12T08:13:05.022Z,61.70
2022-08-12T08:13:40.891Z,61.80
2022-08-12T08:14:14.873Z,62.60
2022-08-12T08:14:50.252Z,63.10
2022-08-12T08:15:51.133Z,62.40
2022-08-12T08:16:20.506Z,63.70
2022-08-12T08:16:52.300Z,62.40
2022-08-12T08:17:25.790Z,62.40
2022-08-12T08:18:02.604Z,62.80
2022-08-12T08:18:35.827Z,63.00
2022-08-12T08:19:12.972Z,63.00
2022-08-12T08:20:01.916Z,62.40
2022-08-12T08:20:39.552Z,62.70
2022-08-12T08:21:11.377Z,62.60
2022-08-12T08:21:43.163Z,62.80
2022-08-12T08:22:15.029Z,63.10
2022-08-12T08:22:46.821Z,63.40
2022-08-12T08:23:19.144Z,62.70
2022-08-12T08:24:10.804Z,62.90
2022-08-12T08:24:42.789Z,62.40
2022-08-12T08:25:34.663Z,62.20
2022-08-12T08:26:06.515Z,63.50
2022-08-12T08:26:38.302Z,64.30
2022-08-12T08:27:10.970Z,63.50
2022-08-12T08:27:47.099Z,63.40
2022-08-12T08:28:18.884Z,63.20
2022-08-12T08:28:50.687Z,63.40
2022-08-12T08:29:23.930Z,63.50
2022-08-12T08:29:57.842Z,64.00
2022-08-12T08:30:31.718Z,64.20
2022-08-12T08:31:03.744Z,64.60
2022-08-12T08:31:36.352Z,64.20
2022-08-12T08:32:09.680Z,64.10
2022-08-12T08:32:41.720Z,64.20
2022-08-12T08:33:20.137Z,64.50
2022-08-12T08:34:05.014Z,64.70
2022-08-12T08:34:54.160Z,65.30
2022-08-12T08:35:28.147Z,65.10
2022-08-12T08:36:24.060Z,65.80
2022-08-12T08:36:56.635Z,65.90
2022-08-12T08:37:33.404Z,66.40
2022-08-12T08:38:17.675Z,66.40
2022-08-12T08:39:06.381Z,66.60
2022-08-12T08:39:39.130Z,67.00
2022-08-12T08:40:30.287Z,67.20
2022-08-12T08:42:14.276Z,66.60
2022-08-12T08:42:34.266Z,66.80
2022-08-12T08:43:07.180Z,66.80
2022-08-12T08:43:43.221Z,66.90
2022-08-12T08:44:17.033Z,67.00
2022-08-12T08:44:49.750Z,67.00
2022-08-12T08:45:30.648Z,67.70
2022-08-12T08:46:05.966Z,67.30
2022-08-12T08:46:38.370Z,67.90
2022-08-12T08:47:13.175Z,67.80
2022-08-12T08:47:46.577Z,68.10
2022-08-12T08:48:18.453Z,68.40
2022-08-12T08:48:56.421Z,67.80
2022-08-12T08:49:31.486Z,68.40
2022-08-12T08:50:10.612Z,67.90
2022-08-12T08:50:57.728Z,68.60
2022-08-12T08:51:37.235Z,69.20
2022-08-12T08:52:11.435Z,68.80
2022-08-12T08:52:44.365Z,69.20
2022-08-12T08:53:17.533Z,69.10
2022-08-12T08:53:52.936Z,68.90
2022-08-12T08:54:24.930Z,69.30
2022-08-12T08:54:56.703Z,70.00
2022-08-12T08:55:47.964Z,70.20
2022-08-12T08:56:21.616Z,70.40
2022-08-12T08:56:53.710Z,70.30
2022-08-12T08:57:26.849Z,70.60
2022-08-12T08:58:16.077Z,70.70
2022-08-12T08:58:49.159Z,70.00
2022-08-12T08:59:22.825Z,70.90
2022-08-12T08:59:54.655Z,70.40
2022-08-12T09:00:27.414Z,70.40
2022-08-12T09:00:59.757Z,70.70
2022-08-12T09:01:38.060Z,70.90
2022-08-12T09:02:10.239Z,71.20
2022-08-12T09:02:42.264Z,71.00
2022-08-12T09:05:07.832Z,71.10
2022-08-12T09:05:10.074Z,71.10
2022-08-12T09:05:13.407Z,69.30
2022-08-12T09:06:02.073Z,69.60
2022-08-12T09:06:37.320Z,70.60
2022-08-12T09:07:16.864Z,70.70
2022-08-12T09:08:08.876Z,71.20
2022-08-12T09:08:44.369Z,71.00
2022-08-12T09:09:18.171Z,70.00
2022-08-12T09:10:03.683Z,71.00
2022-08-12T09:10:37.272Z,71.40
2022-08-12T09:12:06.709Z,71.70
2022-08-12T09:12:38.970Z,71.70
2022-08-12T09:14:12.308Z,70.70
2022-08-12T09:14:29.254Z,71.40
2022-08-12T09:15:19.343Z,69.70
2022-08-12T09:15:55.949Z,70.60
2022-08-12T09:16:29.406Z,71.10
2022-08-12T09:17:03.322Z,71.40
2022-08-12T09:17:42.031Z,71.50
2022-08-12T09:18:15.729Z,71.70
2022-08-12T09:18:52.439Z,70.90
2022-08-12T09:19:26.952Z,70.60
2022-08-12T09:20:00.308Z,71.00
2022-08-12T09:20:35.081Z,72.00
2022-08-12T09:21:06.867Z,72.10
2022-08-12T09:21:54.279Z,71.50
2022-08-12T09:22:30.451Z,70.10
2022-08-12T09:24:00.666Z,71.90
2022-08-12T09:24:07.595Z,72.30
2022-08-12T09:24:39.667Z,72.40
2022-08-12T09:25:25.378Z,72.40
2022-08-12T09:26:04.494Z,72.90
2022-08-12T09:26:46.016Z,73.20
2022-08-12T09:27:18.245Z,73.20
2022-08-12T09:30:10.146Z,72.90
2022-08-12T09:30:16.146Z,72.70
2022-08-12T09:30:51.299Z,71.50
2022-08-12T09:32:06.938Z,72.50
2022-08-12T09:32:31.370Z,73.00
2022-08-12T09:33:18.421Z,73.10
2022-08-12T09:34:29.146Z,73.30
2022-08-12T09:34:44.080Z,73.00
2022-08-12T09:35:31.267Z,73.20
2022-08-12T09:36:05.710Z,72.50
2022-08-12T09:36:57.554Z,72.30
2022-08-12T09:37:57.563Z,72.90
2022-08-12T09:38:28.295Z,72.20
2022-08-12T09:39:02.469Z,73.40
2022-08-12T09:40:01.536Z,73.20
2022-08-12T09:41:02.353Z,72.70
2022-08-12T09:42:32.395Z,71.40
2022-08-12T09:43:11.732Z,72.50
2022-08-12T09:44:05.141Z,73.00
2022-08-12T09:45:17.637Z,73.00
2022-08-12T09:46:06.922Z,73.00
2022-08-12T09:46:41.918Z,73.70
2022-08-12T09:47:14.110Z,73.70
2022-08-12T09:47:46.107Z,73.10
2022-08-12T09:48:35.065Z,72.00
2022-08-12T09:49:13.408Z,73.20
2022-08-12T09:49:49.152Z,73.50
2022-08-12T09:50:31.585Z,73.40
2022-08-12T09:51:04.483Z,74.00
2022-08-12T09:51:44.589Z,73.70
2022-08-12T09:52:16.428Z,73.80
2022-08-12T09:52:52.289Z,73.90
2022-08-12T09:53:29.281Z,73.80
2022-08-12T09:54:31.418Z,73.70
2022-08-12T09:55:05.435Z,73.30
2022-08-12T09:56:07.267Z,72.70
2022-08-12T09:57:02.633Z,72.80
2022-08-12T09:58:45.198Z,72.70
2022-08-12T09:58:58.358Z,72.80
2022-08-12T10:00:13.373Z,73.70
2022-08-12T10:00:19.358Z,73.40
2022-08-12T10:01:06.591Z,72.60
2022-08-12T10:02:43.020Z,71.80
2022-08-12T10:02:44.430Z,70.70
2022-08-12T10:03:32.282Z,72.00
2022-08-12T10:04:11.870Z,72.50
2022-08-12T10:04:51.565Z,72.40
2022-08-12T10:06:19.404Z,71.80
2022-08-12T10:06:27.271Z,71.30
2022-08-12T10:07:06.489Z,72.40
2022-08-12T10:07:52.200Z,71.30
2022-08-12T10:08:32.425Z,71.60
2022-08-12T10:09:08.399Z,70.50
2022-08-12T10:09:58.408Z,70.20
2022-08-12T10:24:20.081Z,69.20
2022-08-12T10:36:12.292Z,67.00
2022-08-12T10:36:44.994Z,68.40
2022-08-12T10:38:03.708Z,69.40
2022-08-12T11:47:59.470Z,58.00
2022-08-12T12:22:57.652Z,57.50
2022-08-12T12:23:30.954Z,54.10
2022-08-12T12:24:08.078Z,54.10
2022-08-12T12:24:46.461Z,54.10
2022-08-12T12:25:19.803Z,53.80
2022-08-12T12:26:06.607Z,53.80
2022-08-12T12:26:40.406Z,53.60
2022-08-12T12:27:12.766Z,53.70
2022-08-12T12:28:05.684Z,53.90
2022-08-12T12:28:41.333Z,54.10
2022-08-12T12:30:18.784Z,53.20
2022-08-12T12:30:30.060Z,53.10
2022-08-12T12:31:04.246Z,53.30
2022-08-12T12:32:09.294Z,53.20
2022-08-12T12:32:29.582Z,52.80
2022-08-12T12:33:03.929Z,53.60
2022-08-12T12:33:57.427Z,53.80
2022-08-12T12:34:30.483Z,54.40
2022-08-12T12:35:13.755Z,54.10
2022-08-12T12:36:19.812Z,54.40
2022-08-12T12:36:48.909Z,54.60
2022-08-12T12:37:59.013Z,54.60
2022-08-12T12:38:19.933Z,54.50
2022-08-12T12:38:51.810Z,54.20
2022-08-12T12:39:23.993Z,53.90
2022-08-12T12:39:58.475Z,54.30
2022-08-12T12:40:31.796Z,53.30
2022-08-12T12:41:14.202Z,54.40
2022-08-12T12:42:43.086Z,54.00
2022-08-12T12:42:45.537Z,54.30
2022-08-12T12:43:28.460Z,54.10
2022-08-12T12:44:13.401Z,53.90
2022-08-12T12:44:58.020Z,53.70
2022-08-12T12:45:33.410Z,53.80
2022-08-12T12:46:05.599Z,53.80
2022-08-12T12:46:37.389Z,53.70
2022-08-12T12:47:29.325Z,53.80
2022-08-12T12:48:08.381Z,53.80
2022-08-12T12:48:44.284Z,53.80
2022-08-12T12:49:17.442Z,54.00
2022-08-12T12:49:58.228Z,54.10
2022-08-12T12:50:45.242Z,54.10
2022-08-12T12:51:49.007Z,53.90
2022-08-12T12:52:18.879Z,54.20
2022-08-12T12:52:53.636Z,53.60
2022-08-12T12:54:06.357Z,53.60
2022-08-12T12:54:18.695Z,53.20
2022-08-12T12:54:55.426Z,52.50
2022-08-12T12:55:35.554Z,52.60
2022-08-12T12:56:13.036Z,52.80
2022-08-12T12:56:50.108Z,53.10
2022-08-12T12:57:36.256Z,53.80
2022-08-12T12:58:16.671Z,53.80
2022-08-12T12:58:54.452Z,53.40
2022-08-12T12:59:56.151Z,53.20
2022-08-12T13:00:21.783Z,52.90
2022-08-12T13:00:57.063Z,52.40
2022-08-12T13:01:31.888Z,52.30
2022-08-12T13:02:08.622Z,51.90
2022-08-12T13:02:42.391Z,51.40
2022-08-12T13:03:19.473Z,51.50
2022-08-12T13:03:56.306Z,51.60
2022-08-12T13:04:35.121Z,51.80
2022-08-12T13:05:13.761Z,52.10
2022-08-12T13:05:46.001Z,52.60
2022-08-12T13:06:30.038Z,52.70
2022-08-12T13:07:02.121Z,52.60
2022-08-12T13:07:54.851Z,52.70
2022-08-12T13:08:35.646Z,52.30
2022-08-12T13:09:12.866Z,51.90
2022-08-12T13:09:46.658Z,51.50
2022-08-12T13:10:18.611Z,52.00
2022-08-12T13:11:01.457Z,51.70
2022-08-12T13:11:41.494Z,52.20
2022-08-12T13:12:14.574Z,51.90
2022-08-12T13:12:47.442Z,52.10
2022-08-12T13:14:12.089Z,52.10
2022-08-12T13:14:28.646Z,52.00
2022-08-12T13:15:03.408Z,52.10
2022-08-12T13:15:43.429Z,51.90
2022-08-12T13:16:20.729Z,53.20
2022-08-12T13:16:52.698Z,51.90
2022-08-12T13:17:25.344Z,52.00
2022-08-12T13:18:20.749Z,51.50
2022-08-12T13:19:01.731Z,51.60
2022-08-12T13:19:43.438Z,51.80
2022-08-12T13:20:38.126Z,51.40
2022-08-12T13:21:23.575Z,51.20
2022-08-12T13:22:21.684Z,50.90
2022-08-12T13:22:55.599Z,50.40
2022-08-12T13:23:36.976Z,50.60
2022-08-12T13:24:09.758Z,50.90
2022-08-12T13:24:42.746Z,50.90
2022-08-12T13:25:19.409Z,50.90
2022-08-12T13:25:55.267Z,51.00
2022-08-12T13:26:32.933Z,51.10